• Join FlightAware (Why Join?)
  • Login
  • US Flag 
07:46AM EDT


 

Airport Tracker/Info


-or-


 

Live Flight TrackerFlight Track Log ✈ QFA796 ✈ 28-Jun-2013 ✈ YMML / MEL - YBAS / ASP

Flight Track Log - Related Links

Times and Time Zones

All times are in EDT time to prevent confusion due to time zone crossing. See the QFA796 flight status page for this flight to view local times or setup timezone preferences in your user account.

Time Position Orientation Groundspeed Altitude Reporting Facility
EDT Latitude Longitude Course Direction KTS MPH feet Rate Location/Type
06:57PM -37.6620 144.8360 275° West 135 155  Level FlightAware
06:58PM -37.6600 144.8070 275° West 170 196 900 2,580 Climbing FlightAware
06:58PM -37.6596 144.8038 274° West 159 183 1,400 1,800 Climbing Aus ATC (RADAR)
06:58PM -37.6580 144.7760 275° West 202 232 1,800 1,440 Climbing FlightAware
06:59PM -37.6560 144.7430 274° West 228 262 2,700 2,400 Climbing FlightAware
06:59PM -37.6550 144.7250 274° West 226 260 3,400 2,400 Climbing FlightAware
06:59PM -37.6510 144.7020 282° West 252 290 3,900 1,920 Climbing FlightAware
07:00PM -37.6450 144.6910 305° West 259 298 4,200 2,580 Climbing FlightAware
07:00PM -37.6260 144.6730 323° Northwest 263 303 5,200 3,060 Climbing FlightAware
07:00PM -37.6020 144.6520 325° Northwest 266 306 6,500 3,240 Climbing FlightAware
07:01PM -37.5700 144.6210 322° Northwest 268 308 8,200 3,420 Climbing FlightAware
07:01PM -37.5620 144.6100 313° West 269 310 8,800 2,580 Climbing FlightAware
07:02PM -37.5240 144.5560 312° West 291 335 10,600 1,920 Climbing FlightAware
07:02PM -37.4829 144.4964 312° West 320 368 11,600 900 Climbing Aus ATC (RADAR)
07:02PM -37.4800 144.4920 312° West 347 399 11,300 2,100 Descending FlightAware
07:03PM -37.4334 144.4407 312° West 353 406 13,000 2,220 Climbing Aus ATC (RADAR)
07:03PM -37.4300 144.4380 312° West 366 421 12,800 2,040 Descending FlightAware
07:04PM -37.3847 144.3961 312° West 366 421 14,200 2,100 Climbing Aus ATC (RADAR)
07:04PM -37.3670 144.3790 312° West 382 440 14,400 1,920 Climbing FlightAware
07:04PM -37.3180 144.3320 323° Northwest 389 448 15,800 2,100 Climbing FlightAware
07:05PM -37.2510 144.2680 323° Northwest 408 470 17,200 2,040 Climbing FlightAware
07:06PM -37.1830 144.2030 323° Northwest 407 468 18,900 2,100 Climbing FlightAware
07:07PM -37.1230 144.1460 323° Northwest 413 475 20,200 2,220 Climbing FlightAware
07:07PM -37.0560 144.0828 323° Northwest 415 478 21,900 1,860 Climbing Aus ATC (RADAR)
07:07PM -37.0600 144.0860 323° Northwest 425 489 21,500 1,680 Descending FlightAware
07:08PM -36.9765 144.0077 323° Northwest 424 488 23,300 1,680 Climbing Aus ATC (RADAR)
07:08PM -36.9700 144.0010 323° Northwest 429 494 23,100 1,140 Descending FlightAware
07:09PM -36.8950 143.9300 323° Northwest 443 510 24,300 1,500 Climbing FlightAware
07:10PM -36.8290 143.8690 323° Northwest 446 513 25,300 1,500 Climbing FlightAware
07:10PM -36.7630 143.8070 323° Northwest 444 511 26,300 1,860 Climbing FlightAware
07:10PM -36.7552 143.7993 323° Northwest 444 511 26,700 660 Climbing Aus ATC (RADAR)
07:11PM -36.6880 143.7370 323° Northwest 449 517 27,000 660 Climbing FlightAware
07:12PM -36.5958 143.6497 323° Northwest 451 519 27,800 720 Climbing Aus ATC (RADAR)
07:12PM -36.5950 143.6500 323° Northwest 445 512 27,500 2,220 Descending FlightAware
07:13PM -36.5380 143.5964 323° Northwest 438 504 29,100 2,100 Climbing Aus ATC (RADAR)
07:13PM -36.5310 143.5900 323° Northwest 441 507 28,900 1,560 Descending FlightAware
07:13PM -36.4647 143.5291 323° Northwest 433 498 30,300 1,560 Climbing Aus ATC (RADAR)
07:13PM -36.4560 143.5210 323° Northwest 438 504 30,100 840 Descending FlightAware
07:14PM -36.3910 143.4600 323° Northwest 438 504 31,000 1,320 Climbing FlightAware
07:15PM -36.3270 143.4010 323° Northwest 438 504 31,900 1,260 Climbing FlightAware
07:15PM -36.2630 143.3420 323° Northwest 428 493 32,700 1,260 Climbing FlightAware
07:16PM -36.1890 143.2740 323° Northwest 423 487 33,700 1,380 Climbing FlightAware
07:17PM -36.1190 143.2100 324° Northwest 419 482 34,800 1,800 Climbing FlightAware
07:17PM -36.0654 143.1625 324° Northwest 407 468 36,100 1,620 Climbing Aus ATC (RADAR)
07:18PM -36.0570 143.1530 324° Northwest 403 464 35,900 -180 Descending FlightAware
07:18PM -35.9970 143.0990 324° Northwest 401 461 36,000 300 Climbing FlightAware
07:19PM -35.9449 143.0517 324° Northwest 405 466 36,300  Climbing Aus ATC (RADAR)
07:19PM -35.9150 143.0230 324° Northwest 404 465 36,000 -300 Descending FlightAware
07:20PM -35.8400 142.9550 324° Northwest 403 464 36,000 180 Level FlightAware
07:21PM -35.7777 142.8989 324° Northwest 405 466 36,300  Climbing Aus ATC (RADAR)
07:21PM -35.7770 142.8980 324° Northwest 400 460 36,000  Descending FlightAware
07:21PM -35.7174 142.8445 324° Northwest 403 464 36,300  Climbing Aus ATC (RADAR)
07:21PM -35.7110 142.8380 324° Northwest 399 459 36,000  Descending FlightAware
07:22PM -35.6570 142.7895 324° Northwest 404 465 36,300  Climbing Aus ATC (RADAR)
07:22PM -35.6500 142.7830 324° Northwest 400 460 36,000  Descending FlightAware
07:23PM -35.6038 142.7422 324° Northwest 404 465 36,300  Climbing Aus ATC (RADAR)
07:23PM -35.5970 142.7350 324° Northwest 401 461 36,000  Descending FlightAware
07:23PM -35.5351 142.6801 324° Northwest 405 466 36,300  Climbing Aus ATC (RADAR)
07:23PM -35.5290 142.6740 324° Northwest 400 460 36,000 -360 Descending FlightAware
07:24PM -35.4600 142.6110 323° Northwest 399 459 36,000  Level FlightAware
07:25PM -35.4000 142.5580 324° Northwest 398 458 36,000  Level FlightAware
07:26PM -35.3320 142.4970 324° Northwest 403 464 36,000  Level FlightAware
07:26PM -35.2800 142.4500 324° Northwest 402 463 36,000  Level FlightAware
07:27PM -35.2050 142.3830 324° Northwest 401 461 36,000 180 Level FlightAware
07:28PM -35.1443 142.3298 324° Northwest 399 459 36,300  Climbing Aus ATC (RADAR)
07:28PM -35.1440 142.3290 324° Northwest 401 461 36,000  Descending FlightAware
07:28PM -35.0843 142.2767 324° Northwest 397 457 36,300  Climbing Aus ATC (RADAR)
07:28PM -35.0780 142.2700 324° Northwest 400 460 36,000  Descending FlightAware
07:29PM -35.0244 142.2238 324° Northwest 397 457 36,300  Climbing Aus ATC (RADAR)
07:29PM -35.0170 142.2170 324° Northwest 398 458 36,000 -480 Descending FlightAware
07:30PM -34.9670 142.1720 324° Northwest 398 458 36,000  Level FlightAware
07:30PM -34.8950 142.1090 324° Northwest 397 457 36,000  Level FlightAware
07:31PM -34.8280 142.0500 324° Northwest 396 456 36,000  Level FlightAware
07:32PM -34.7760 142.0040 324° Northwest 396 456 36,000  Level FlightAware
07:33PM -34.7060 141.9420 324° Northwest 396 456 36,000  Level FlightAware
07:33PM -34.6470 141.8910 325° Northwest 395 455 36,000  Level FlightAware
07:34PM -34.5870 141.8390 324° Northwest 392 451 36,000  Level FlightAware
07:35PM -34.5250 141.7840 324° Northwest 390 449 36,000 420 Level FlightAware
07:35PM -34.5215 141.7815 324° Northwest 389 448 36,300 480 Climbing Aus ATC (RADAR)
07:35PM -34.4704 141.7372 324° Northwest 388 447 36,300 -360 Level Aus ATC (RADAR)
07:36PM -34.4400 141.7100 324° Northwest 388 447 36,000 -300 Descending FlightAware
07:36PM -34.3820 141.6590 324° Northwest 387 445 36,000  Level FlightAware
07:37PM -34.3200 141.6050 324° Northwest 385 443 36,000  Level FlightAware
07:38PM -34.2570 141.5510 324° Northwest 384 442 36,000 360 Level FlightAware
07:38PM -34.2534 141.5483 324° Northwest 382 440 36,300  Climbing Aus ATC (RADAR)
07:38PM -34.1960 141.4980 324° Northwest 382 440 36,000  Descending FlightAware
07:39PM -34.1387 141.4492 324° Northwest 381 438 36,300  Climbing Aus ATC (RADAR)
07:39PM -34.1420 141.4510 324° Northwest 380 437 36,000  Descending FlightAware
07:40PM -34.0888 141.4062 324° Northwest 379 436 36,300  Climbing Aus ATC (RADAR)
07:40PM -34.0800 141.3980 324° Northwest 378 435 36,000 -420 Descending FlightAware
07:40PM -34.0230 141.3490 325° Northwest 376 433 36,000  Level FlightAware
07:41PM -33.9580 141.2930 324° Northwest 376 433 36,000  Level FlightAware
07:42PM -33.9010 141.2450 324° Northwest 377 434 36,000 420 Level FlightAware
07:42PM -33.8966 141.2414 324° Northwest 376 433 36,300  Climbing Aus ATC (RADAR)
07:43PM -33.8350 141.1880 324° Northwest 376 433 36,000 -240 Descending FlightAware
07:43PM -33.7860 141.1460 325° Northwest 377 434 36,000  Level FlightAware
07:44PM -33.7210 141.0910 325° Northwest 377 434 36,000  Level FlightAware
07:45PM -33.6610 141.0400 325° Northwest 377 434 36,000 180 Level FlightAware
07:45PM -33.6069 140.9940 325° Northwest 371 427 36,300  Climbing Aus ATC (RADAR)
07:45PM -33.6050 140.9910 325° Northwest 373 429 36,000  Descending FlightAware
07:46PM -33.5591 140.9507 325° Northwest 369 425 36,300  Climbing Aus ATC (RADAR)
07:46PM -33.5450 140.9380 325° Northwest 370 426 36,000 -360 Descending FlightAware
07:47PM -33.4890 140.8880 323° Northwest 370 426 36,000  Level FlightAware
07:47PM -33.4350 140.8410 323° Northwest 368 423 36,000 420 Level FlightAware
07:47PM -33.4289 140.8353 323° Northwest 366 421 36,300 480 Climbing Aus ATC (RADAR)
07:48PM -33.3802 140.7923 323° Northwest 369 425 36,300 -420 Level Aus ATC (RADAR)
07:48PM -33.3710 140.7840 323° Northwest 366 421 36,000 -420 Descending FlightAware
07:49PM -33.3180 140.7370 323° Northwest 364 419 36,000 240 Level FlightAware
07:49PM -33.2723 140.6978 323° Northwest 364 419 36,300  Climbing Aus ATC (RADAR)
07:50PM -33.2580 140.6840 323° Northwest 362 417 36,000 -360 Descending FlightAware
07:50PM -33.2030 140.6360 324° Northwest 362 417 36,000  Level FlightAware
07:51PM -33.1420 140.5830 324° Northwest 361 415 36,000  Level FlightAware
07:52PM -33.0880 140.5350 323° Northwest 362 417 36,000  Level FlightAware
07:52PM -33.0380 140.4920 324° Northwest 362 417 36,000  Level FlightAware
07:53PM -32.9780 140.4390 323° Northwest 364 419 36,000  Level FlightAware
07:54PM -32.9240 140.3920 323° Northwest 359 413 36,000 360 Level FlightAware
07:54PM -32.9157 140.3852 323° Northwest 360 414 36,300  Climbing Aus ATC (RADAR)
07:54PM -32.8630 140.3390 323° Northwest 359 413 36,000  Descending FlightAware
07:54PM -32.8609 140.3376 323° Northwest 364 419 36,300 480 Climbing Aus ATC (RADAR)
07:55PM -32.8124 140.2952 323° Northwest 369 425 36,300 -480 Level Aus ATC (RADAR)
07:55PM -32.8070 140.2900 323° Northwest 360 414 36,000 -420 Descending FlightAware
07:56PM -32.7590 140.2490 323° Northwest 362 417 36,000 360 Level FlightAware
07:56PM -32.7445 140.2361 323° Northwest 366 421 36,300 600 Climbing Aus ATC (RADAR)
07:56PM -32.7099 140.2063 323° Northwest 368 423 36,300 -420 Level Aus ATC (RADAR)
07:57PM -32.6900 140.1890 323° Northwest 368 423 36,000 -360 Descending FlightAware
07:57PM -32.6320 140.1390 324° Northwest 368 423 36,000  Level FlightAware
07:58PM -32.5730 140.0880 324° Northwest 361 415 36,000  Level FlightAware
07:59PM -32.5110 140.0350 324° Northwest 360 414 36,000 180 Level FlightAware
07:59PM -32.4554 139.9860 324° Northwest 368 423 36,300  Climbing Aus ATC (RADAR)
07:59PM -32.4580 139.9890 324° Northwest 358 412 36,000  Descending FlightAware
08:00PM -32.4147 139.9512 324° Northwest 365 420 36,300  Climbing Aus ATC (RADAR)
08:00PM -32.4010 139.9400 324° Northwest 363 418 36,000  Descending FlightAware
08:01PM -32.3463 139.8924 324° Northwest 366 421 36,300  Climbing Aus ATC (RADAR)
08:01PM -32.3490 139.8950 324° Northwest 362 417 36,000  Descending FlightAware
08:01PM -32.2992 139.8520 324° Northwest 362 417 36,300  Climbing Aus ATC (RADAR)
08:01PM -32.2870 139.8420 324° Northwest 362 417 36,000 -360 Descending FlightAware
08:02PM -32.2320 139.7960 325° Northwest 360 414 36,000 180 Level FlightAware
08:03PM -32.1712 139.7426 325° Northwest 359 413 36,300  Climbing Aus ATC (RADAR)
08:03PM -32.1730 139.7450 325° Northwest 361 415 36,000  Descending FlightAware
08:03PM -32.1235 139.7024 325° Northwest 362 417 36,300  Climbing Aus ATC (RADAR)
08:03PM -32.1170 139.6980 325° Northwest 360 414 36,000  Descending FlightAware
08:04PM -32.0621 139.6493 325° Northwest 367 422 36,300  Climbing Aus ATC (RADAR)
08:04PM -32.0560 139.6450 325° Northwest 361 415 36,000 -300 Descending FlightAware
08:05PM -31.9820 139.5820 324° Northwest 363 418 36,000  Level FlightAware
08:06PM -31.9200 139.5300 325° Northwest 357 411 36,000 180 Level FlightAware
08:06PM -31.8716 139.4869 325° Northwest 370 426 36,300  Climbing Aus ATC (RADAR)
08:07PM -31.8740 139.4900 325° Northwest 357 411 36,000 -420 Descending FlightAware
08:07PM -31.8320 139.4520 322° Northwest 357 411 36,000  Level FlightAware
08:08PM -31.7920 139.4160 323° Northwest 357 411 36,000  Level FlightAware
08:09PM -31.7400 139.3700 323° Northwest 357 411 36,000 180 Level FlightAware
08:09PM -31.6311 139.2856 323° Northwest 370 426 36,300  Climbing Aus ATC (RADAR)
08:09PM -31.6860 139.3230 323° Northwest 357 411 36,000  Descending FlightAware
08:10PM -31.5835 139.2458 323° Northwest 364 419 36,300  Climbing Aus ATC (RADAR)
08:10PM -31.6430 139.2850 323° Northwest 357 411 36,000  Descending FlightAware
08:11PM -31.5209 139.1917 323° Northwest 370 426 36,300  Climbing Aus ATC (RADAR)
08:11PM -31.5610 139.2110 323° Northwest 357 411 36,000  Descending FlightAware
08:12PM -31.4170 139.1051 323° Northwest 369 425 36,300  Climbing Aus ATC (RADAR)
08:12PM -31.5150 139.1710 323° Northwest 357 411 36,000 -540 Descending FlightAware
08:13PM -31.4740 139.1350 323° Northwest 357 411 36,000 420 Level FlightAware
08:13PM -31.3617 139.0619 323° Northwest 365 420 36,300 420 Climbing Aus ATC (RADAR)
08:13PM -31.3129 139.0196 323° Northwest 369 425 36,300 -420 Level Aus ATC (RADAR)
08:13PM -31.4190 139.0870 323° Northwest 357 411 36,000  Descending FlightAware
08:14PM -31.2502 138.9645 323° Northwest 374 430 36,300  Climbing Aus ATC (RADAR)
08:14PM -31.3780 139.0500 323° Northwest 357 411 36,000 -360 Descending FlightAware
08:15PM -31.3240 139.0020 323° Northwest 357 411 36,000  Level FlightAware
08:15PM -31.2840 138.9670 323° Northwest 357 411 36,000 180 Level FlightAware
08:16PM -31.0471 138.7992 323° Northwest 371 427 36,300 120 Climbing Aus ATC (RADAR)
08:17PM -30.9556 138.7163 322° Northwest 382 440 36,300  Level Aus ATC (RADAR)
08:18PM -30.9133 138.6817 325° Northwest 379 436 36,300  Level Aus ATC (RADAR)
08:19PM -30.8569 138.6405 328° Northwest 371 427 36,300  Level Aus ATC (RADAR)
08:19PM -30.8004 138.5930 324° Northwest 369 425 36,300 -60 Level Aus ATC (RADAR)
08:22PM -30.5597 138.4172 328° Northwest 36,000 -60 Descending Aus ATC (Calculated)
08:24PM -30.3979 138.3010 328° Northwest  Level Estimated
08:25PM -30.3112 138.2389 328° Northwest  Level Estimated
08:26PM -30.2245 138.1769 328° Northwest  Level Estimated
08:27PM -30.1378 138.1150 328° Northwest  Level Estimated
08:27PM -30.1227 138.1008 328° Northwest 36,000  Level Aus ATC (Calculated)
08:29PM -29.9518 137.9794 328° Northwest  Level Estimated
08:30PM -29.8633 137.9167 328° Northwest  Level Estimated
08:31PM -29.7749 137.8542 328° Northwest  Level Estimated
08:32PM -29.6863 137.7917 328° Northwest  Level Estimated
08:32PM -29.6484 137.7612 328° Northwest 36,000  Level Aus ATC (Calculated)
08:34PM -29.4771 137.6409 329° Northwest  Level Estimated
08:34PM -29.4703 137.6346 328° Northwest 36,000  Level Aus ATC (Calculated)
08:35PM -29.3817 137.5726 329° Northwest  Level Estimated
08:36PM -29.2930 137.5107 329° Northwest  Level Estimated
08:37PM -29.2043 137.4489 329° Northwest  Level Estimated
08:37PM -29.2364 137.4692 329° Northwest 36,000  Level Aus ATC (Calculated)
08:38PM -29.1730 137.4245 329° Northwest 36,000  Level Aus ATC (Calculated)
08:39PM -29.0541 137.3409 329° Northwest 36,000  Level Aus ATC (Calculated)
08:40PM -28.9500 137.2679 329° Northwest 36,000  Level Aus ATC (Calculated)
08:41PM -28.8589 137.2041 329° Northwest 36,000  Level Aus ATC (Calculated)
08:42PM -28.8078 137.1699 329° Northwest  Level Estimated
08:42PM -28.7791 137.1484 329° Northwest 36,000  Level Aus ATC (Calculated)
08:43PM -28.6395 137.0511 329° Northwest 36,000  Level Aus ATC (Calculated)
08:44PM -28.6280 137.0446 329° Northwest  Level Estimated
08:45PM -28.5446 136.9862 329° Northwest  Level Estimated
08:46PM -28.4556 136.9254 329° Northwest  Level Estimated
08:47PM -28.3666 136.8647 329° Northwest  Level Estimated
08:47PM -28.3251 136.8332 329° Northwest 36,000  Level Aus ATC (Calculated)
08:48PM -28.2202 136.7608 329° Northwest 36,000  Level Aus ATC (Calculated)
08:50PM -28.0453 136.6425 329° Northwest  Level Estimated
08:51PM -27.9556 136.5820 329° Northwest  Level Estimated
08:52PM -27.8658 136.5216 329° Northwest  Level Estimated
08:52PM -27.7886 136.4679 329° Northwest 36,000  Level Aus ATC (Calculated)
08:53PM -27.7760 136.4613 329° Northwest  Level Estimated
08:53PM -27.6926 136.4031 329° Northwest 36,000  Level Aus ATC (Calculated)
08:54PM -27.6943 136.4047 329° Northwest  Level Estimated
08:55PM -27.5907 136.3350 329° Northwest  Level Estimated
08:56PM -27.5009 136.2750 329° Northwest  Level Estimated
08:57PM -27.4109 136.2151 329° Northwest  Level Estimated
08:58PM -27.3210 136.1554 329° Northwest  Level Estimated
08:58PM -27.2602 136.1129 329° Northwest 36,000  Level Aus ATC (Calculated)
08:59PM -27.2311 136.0957 329° Northwest  Level Estimated
09:00PM -27.1567 136.0444 330° Northwest  Level Estimated
09:01PM -27.0667 135.9850 330° Northwest  Level Estimated
09:02PM -26.9766 135.9256 330° Northwest  Level Estimated
09:03PM -26.8865 135.8663 330° Northwest  Level Estimated
09:03PM -26.7970 135.8050 330° Northwest 395 455 36,000  Level FlightAware
09:03PM -26.7440 135.7690 329° Northwest 395 455 36,000  Level FlightAware
09:03PM -26.7790 135.7931 329° Northwest 36,000  Level Aus ATC (Calculated)
09:04PM -26.7964 135.8071 330° Northwest  Level Estimated
09:04PM -26.7309 135.7613 329° Northwest 36,000  Level Aus ATC (Calculated)
09:04PM -26.6700 135.7210 329° Northwest 394 453 36,000  Level FlightAware
09:05PM -26.5860 135.6650 329° Northwest 393 452 36,000  Level FlightAware
09:06PM -26.5209 135.6229 329° Northwest 28,100  Descending Aus ATC (Calculated)
09:06PM -26.4760 135.5930 330° Northwest 392 451 36,000 3,480 Climbing FlightAware
09:08PM -26.2750 135.4620 330° Northwest 392 451 36,000  Level FlightAware
09:09PM -26.2511 135.4459 330° Northwest 28,100  Descending Aus ATC (Calculated)
09:09PM -26.2110 135.4200 330° Northwest 393 452 36,000 9,240 Climbing FlightAware
09:10PM -26.1420 135.3740 330° Northwest 393 452 36,000  Level FlightAware
09:10PM -26.0870 135.3390 330° Northwest 393 452 36,000  Level FlightAware
09:11PM -26.0080 135.2870 329° Northwest 395 455 36,000  Level FlightAware
09:11PM -26.0350 135.3049 329° Northwest 28,100  Descending Aus ATC (Calculated)
09:12PM -25.9390 135.2420 329° Northwest 397 457 36,000 5,340 Climbing FlightAware
09:12PM -25.9810 135.2698 330° Northwest 28,100  Descending Aus ATC (Calculated)
09:13PM -25.9270 135.2346 330° Northwest 28,100 9,660 Level Aus ATC (Calculated)
09:13PM -25.8510 135.1850 329° Northwest 398 458 36,000 9,480 Climbing FlightAware
09:13PM -25.7940 135.1480 330° Northwest 398 458 36,000  Level FlightAware
09:14PM -25.7648 135.1294 329° Northwest 28,100  Descending Aus ATC (Calculated)
09:14PM -25.7230 135.1020 330° Northwest 398 458 36,000 7,980 Climbing FlightAware
09:15PM -25.6540 135.0580 330° Northwest 397 457 36,000  Level FlightAware
09:16PM -25.5660 135.0010 330° Northwest 397 457 36,000  Level FlightAware
09:16PM -25.4940 134.9550 330° Northwest 397 457 36,000  Level FlightAware
09:17PM -25.4290 134.9120 329° Northwest 398 458 36,000  Level FlightAware
09:18PM -25.3620 134.8690 330° Northwest 399 459 36,000 -180 Level FlightAware
09:18PM -25.3861 134.8850 330° Northwest 28,100 -360 Descending Aus ATC (Calculated)
09:19PM -25.3010 134.8310 331° Northwest 375 432 35,800 5,760 Climbing FlightAware
09:19PM -25.2360 134.7890 331° Northwest 371 427 34,100 -2,040 Descending FlightAware
09:21PM -25.0970 134.6990 330° Northwest 360 414 31,100 -1,920 Descending FlightAware
09:21PM -25.0611 134.6767 332° Northwest 28,100 -1,920 Descending Aus ATC (Calculated)
09:21PM -25.0611 134.6767 332° Northwest 28,100 3,540 Level Aus ATC (Calculated)
09:22PM -25.0330 134.6600 330° Northwest 352 405 29,700 540 Climbing FlightAware
09:22PM -24.9760 134.6250 330° Northwest 338 389 28,700 -1,440 Descending FlightAware
09:23PM -24.9527 134.6075 331° Northwest 2,400 -1,380 Descending Aus ATC (Calculated)
09:23PM -24.9180 134.5860 330° Northwest 322 371 27,700 21,300 Climbing FlightAware
09:24PM -24.8650 134.5530 331° Northwest 317 365 26,600 -1,680 Descending FlightAware
09:24PM -24.8140 134.5210 330° Northwest 328 377 25,500 -1,740 Descending FlightAware
09:25PM -24.8079 134.5156 330° Northwest 2,400 -1,740 Descending Aus ATC (Calculated)
09:25PM -24.7640 134.4880 330° Northwest 325 374 24,400 17,880 Climbing FlightAware
09:25PM -24.7355 134.4697 331° Northwest 2,400 -1,800 Descending Aus ATC (Calculated)
09:25PM -24.7355 134.4697 331° Northwest 2,400 30,900 Level Aus ATC (Calculated)
09:26PM -24.7020 134.4490 330° Northwest 319 367 23,000 19,800 Climbing FlightAware
09:26PM -24.6500 134.4160 330° Northwest 312 359 21,900 -1,740 Descending FlightAware
09:27PM -24.5906 134.3782 149° Southeast 2,400 -1,740 Descending Aus ATC (Calculated)
09:27PM -24.5980 134.3830 330° Northwest 305 351 20,700 21,900 Climbing FlightAware
09:28PM -24.5440 134.3490 330° Northwest 299 344 19,600 -1,500 Descending FlightAware
09:29PM -24.4940 134.3170 330° Northwest 295 339 18,500 -1,440 Descending FlightAware
09:29PM -24.4457 134.2868 172° South 2,400 -1,320 Descending Aus ATC (Calculated)
09:29PM -24.4470 134.2870 330° Northwest 286 329 17,600 11,040 Climbing FlightAware
09:30PM -24.4020 134.2600 331° Northwest 266 306 17,000 -1,140 Descending FlightAware
09:31PM -24.3610 134.2340 330° Northwest 253 291 16,100 -1,380 Descending FlightAware
09:31PM -24.3140 134.2040 330° Northwest 246 283 15,100 -1,260 Descending FlightAware
09:32PM -24.2281 134.1501 151° Southeast 2,400 -1,140 Descending Aus ATC (Calculated)
09:32PM -24.2720 134.1770 330° Northwest 241 277 14,300 8,640 Climbing FlightAware
09:33PM -24.2330 134.1530 331° Northwest 239 275 13,400 -1,260 Descending FlightAware
09:33PM -24.2040 134.1180 312° West 227 261 12,600 -1,260 Descending FlightAware
09:34PM -24.1760 134.0790 308° West 226 260 11,700 -1,260 Descending FlightAware
09:35PM -24.0105 134.0139 169° South 2,400 -1,320 Descending Aus ATC (Calculated)
09:35PM -24.1510 134.0440 308° West 223 257 10,900 7,140 Climbing FlightAware
09:36PM -24.1210 134.0020 308° West 233 268 9,900 -1,320 Descending FlightAware
09:36PM -24.1020 133.9760 309° West 235 270 9,300 -1,260 Descending FlightAware
09:37PM -24.0830 133.9480 307° West 236 272 8,700 -1,320 Descending FlightAware
09:37PM -24.0650 133.9240 309° West 244 281 8,100 -1,320 Descending FlightAware
09:37PM -24.0420 133.9000 316° Northwest 249 287 7,500 -1,260 Descending FlightAware
09:38PM -23.7927 133.8782 178° South 1,800 -1,260 Descending Aus ATC (Calculated)
09:38PM -23.7927 133.8782 178° South 1,800 16,080 Level Aus ATC (Calculated)
09:38PM -24.0100 133.8860 338° Northwest 248 285 6,900 5,820 Climbing FlightAware
09:38PM -23.9800 133.8750 338° Northwest 248 285 6,300 -1,380 Descending FlightAware
09:39PM -23.9650 133.8680 337° Northwest 248 285 6,000 -1,020 Descending FlightAware
09:39PM -23.9340 133.8560 341° North 241 277 5,600 -900 Descending FlightAware
09:40PM -23.9080 133.8450 339° North 237 273 5,200 -1,200 Descending FlightAware
09:40PM -23.8790 133.8340 341° North 228 262 4,600 -1,200 Descending FlightAware
09:40PM -23.8530 133.8230 339° North 220 253 4,100 -1,080 Descending FlightAware
09:41PM -23.8260 133.8130 341° North 211 243 3,600 -1,080 Descending FlightAware
09:41PM -23.8150 133.8100 346° North 198 228 3,400 -960 Descending FlightAware
09:42PM -23.7910 133.8200 21° North 162 186 2,900 -960 Descending FlightAware
09:42PM -23.7860 133.8280 56° Northeast 149 171 2,700 -900 Descending FlightAware
09:42PM -23.7820 133.8390 68° East 149 171 2,500 -780 Descending FlightAware
09:43PM -23.7870 133.8670 101° East 150 173 2,000 -780 Descending FlightAware
09:43PM -23.7920 133.8770 119° Southeast 148 170 1,800 -720 Descending FlightAware
09:44PM -23.8020 133.8940 123° Southeast 145 167 1,500 -720 Descending FlightAware
09:44PM -23.8090 133.9070 123° Southeast 37 43 -2,940 Descending FlightAware
09:44PM -23.8090 133.9080 90° East 29 33  Level FlightAware